sensor_id;sensor_type;location;lat;lon;timestamp;P1;durP1;ratioP1;P2;durP2;ratioP2
71665;SDS011;59503;53.486;10.196;2022-10-31T00:01:11;28.60;;;16.38;;
71665;SDS011;59503;53.486;10.196;2022-10-31T00:03:38;24.75;;;14.85;;
71665;SDS011;59503;53.486;10.196;2022-10-31T00:06:04;25.00;;;14.00;;
71665;SDS011;59503;53.486;10.196;2022-10-31T00:08:29;23.67;;;14.07;;
71665;SDS011;59503;53.486;10.196;2022-10-31T00:10:54;24.38;;;14.55;;
71665;SDS011;59503;53.486;10.196;2022-10-31T00:13:20;23.47;;;13.77;;
71665;SDS011;59503;53.486;10.196;2022-10-31T00:15:45;23.33;;;14.00;;
71665;SDS011;59503;53.486;10.196;2022-10-31T00:18:11;23.20;;;14.43;;
71665;SDS011;59503;53.486;10.196;2022-10-31T00:20:36;24.70;;;14.07;;
71665;SDS011;59503;53.486;10.196;2022-10-31T00:23:03;24.60;;;14.13;;
71665;SDS011;59503;53.486;10.196;2022-10-31T00:25:32;22.80;;;14.68;;
71665;SDS011;59503;53.486;10.196;2022-10-31T00:28:00;35.37;;;18.57;;
71665;SDS011;59503;53.486;10.196;2022-10-31T00:30:25;31.50;;;17.20;;
71665;SDS011;59503;53.486;10.196;2022-10-31T00:32:51;28.40;;;16.37;;
71665;SDS011;59503;53.486;10.196;2022-10-31T00:35:16;26.73;;;15.33;;
71665;SDS011;59503;53.486;10.196;2022-10-31T00:37:42;24.97;;;14.93;;
71665;SDS011;59503;53.486;10.196;2022-10-31T00:40:07;26.58;;;15.90;;
71665;SDS011;59503;53.486;10.196;2022-10-31T00:42:33;34.67;;;18.77;;
71665;SDS011;59503;53.486;10.196;2022-10-31T00:44:59;35.50;;;18.73;;
71665;SDS011;59503;53.486;10.196;2022-10-31T00:47:24;25.27;;;14.83;;
71665;SDS011;59503;53.486;10.196;2022-10-31T00:49:49;29.43;;;15.20;;
71665;SDS011;59503;53.486;10.196;2022-10-31T00:52:15;24.30;;;14.40;;
71665;SDS011;59503;53.486;10.196;2022-10-31T00:54:40;23.03;;;14.33;;
71665;SDS011;59503;53.486;10.196;2022-10-31T00:57:06;26.60;;;15.20;;
71665;SDS011;59503;53.486;10.196;2022-10-31T00:59:31;24.67;;;15.43;;
71665;SDS011;59503;53.486;10.196;2022-10-31T01:01:57;32.05;;;17.58;;
71665;SDS011;59503;53.486;10.196;2022-10-31T01:04:22;27.93;;;16.10;;
71665;SDS011;59503;53.486;10.196;2022-10-31T01:06:47;33.80;;;16.37;;
71665;SDS011;59503;53.486;10.196;2022-10-31T01:09:13;29.60;;;16.33;;
71665;SDS011;59503;53.486;10.196;2022-10-31T01:11:38;29.15;;;15.57;;
71665;SDS011;59503;53.486;10.196;2022-10-31T01:14:04;26.00;;;14.10;;
71665;SDS011;59503;53.486;10.196;2022-10-31T01:16:29;21.77;;;13.97;;
71665;SDS011;59503;53.486;10.196;2022-10-31T01:18:55;24.88;;;14.63;;
71665;SDS011;59503;53.486;10.196;2022-10-31T01:21:22;32.33;;;16.83;;
71665;SDS011;59503;53.486;10.196;2022-10-31T01:23:49;26.05;;;14.25;;
71665;SDS011;59503;53.486;10.196;2022-10-31T01:28:50;29.55;;;15.93;;
71665;SDS011;59503;53.486;10.196;2022-10-31T01:31:18;41.70;;;18.20;;
71665;SDS011;59503;53.486;10.196;2022-10-31T01:33:45;36.70;;;17.95;;
71665;SDS011;59503;53.486;10.196;2022-10-31T01:36:12;37.72;;;17.48;;
71665;SDS011;59503;53.486;10.196;2022-10-31T01:38:40;27.27;;;14.95;;
71665;SDS011;59503;53.486;10.196;2022-10-31T01:41:06;27.10;;;14.77;;
71665;SDS011;59503;53.486;10.196;2022-10-31T01:43:49;26.40;;;15.18;;
71665;SDS011;59503;53.486;10.196;2022-10-31T01:46:16;25.20;;;14.90;;
71665;SDS011;59503;53.486;10.196;2022-10-31T01:48:45;22.63;;;12.70;;
71665;SDS011;59503;53.486;10.196;2022-10-31T01:51:12;22.42;;;13.60;;
71665;SDS011;59503;53.486;10.196;2022-10-31T01:53:40;21.58;;;13.45;;
71665;SDS011;59503;53.486;10.196;2022-10-31T01:56:06;22.63;;;13.32;;
71665;SDS011;59503;53.486;10.196;2022-10-31T01:58:33;22.07;;;13.57;;
71665;SDS011;59503;53.486;10.196;2022-10-31T02:01:00;21.42;;;13.43;;
71665;SDS011;59503;53.486;10.196;2022-10-31T02:03:27;28.00;;;13.95;;
71665;SDS011;59503;53.486;10.196;2022-10-31T02:05:54;24.52;;;13.60;;
71665;SDS011;59503;53.486;10.196;2022-10-31T02:10:52;22.30;;;12.87;;
71665;SDS011;59503;53.486;10.196;2022-10-31T02:13:19;22.40;;;12.55;;
71665;SDS011;59503;53.486;10.196;2022-10-31T02:15:47;24.73;;;13.38;;
71665;SDS011;59503;53.486;10.196;2022-10-31T02:18:16;22.33;;;12.68;;
71665;SDS011;59503;53.486;10.196;2022-10-31T02:23:26;22.57;;;12.93;;
71665;SDS011;59503;53.486;10.196;2022-10-31T02:34:01;23.05;;;12.32;;
71665;SDS011;59503;53.486;10.196;2022-10-31T02:39:38;21.83;;;11.77;;
71665;SDS011;59503;53.486;10.196;2022-10-31T02:42:14;20.25;;;11.98;;
71665;SDS011;59503;53.486;10.196;2022-10-31T02:47:40;26.60;;;12.77;;
71665;SDS011;59503;53.486;10.196;2022-10-31T02:50:26;24.77;;;12.93;;
71665;SDS011;59503;53.486;10.196;2022-10-31T02:52:55;23.33;;;13.23;;
71665;SDS011;59503;53.486;10.196;2022-10-31T02:57:53;24.17;;;13.10;;
71665;SDS011;59503;53.486;10.196;2022-10-31T03:00:21;26.92;;;14.18;;
71665;SDS011;59503;53.486;10.196;2022-10-31T03:02:56;22.60;;;13.37;;
71665;SDS011;59503;53.486;10.196;2022-10-31T03:10:59;22.80;;;13.13;;
71665;SDS011;59503;53.486;10.196;2022-10-31T03:13:31;25.10;;;13.37;;
71665;SDS011;59503;53.486;10.196;2022-10-31T03:18:54;25.08;;;13.80;;
71665;SDS011;59503;53.486;10.196;2022-10-31T03:21:29;22.73;;;12.38;;
71665;SDS011;59503;53.486;10.196;2022-10-31T03:23:59;28.65;;;12.82;;
71665;SDS011;59503;53.486;10.196;2022-10-31T03:26:26;29.93;;;13.90;;
71665;SDS011;59503;53.486;10.196;2022-10-31T03:28:54;26.83;;;12.52;;
71665;SDS011;59503;53.486;10.196;2022-10-31T03:31:39;20.30;;;11.98;;
71665;SDS011;59503;53.486;10.196;2022-10-31T03:34:10;23.20;;;12.80;;
71665;SDS011;59503;53.486;10.196;2022-10-31T03:36:38;22.02;;;12.27;;
71665;SDS011;59503;53.486;10.196;2022-10-31T03:39:05;21.60;;;11.95;;
71665;SDS011;59503;53.486;10.196;2022-10-31T03:41:35;24.88;;;13.90;;
71665;SDS011;59503;53.486;10.196;2022-10-31T03:44:08;24.33;;;12.55;;
71665;SDS011;59503;53.486;10.196;2022-10-31T03:46:38;23.17;;;12.80;;
71665;SDS011;59503;53.486;10.196;2022-10-31T03:49:04;22.65;;;12.25;;
71665;SDS011;59503;53.486;10.196;2022-10-31T03:51:34;22.03;;;13.40;;
71665;SDS011;59503;53.486;10.196;2022-10-31T03:54:04;25.75;;;13.30;;
71665;SDS011;59503;53.486;10.196;2022-10-31T03:57:00;25.98;;;13.35;;
71665;SDS011;59503;53.486;10.196;2022-10-31T03:59:42;29.73;;;14.77;;
71665;SDS011;59503;53.486;10.196;2022-10-31T04:02:14;29.05;;;13.85;;
71665;SDS011;59503;53.486;10.196;2022-10-31T04:04:43;25.73;;;13.27;;
71665;SDS011;59503;53.486;10.196;2022-10-31T04:07:10;35.22;;;15.43;;
71665;SDS011;59503;53.486;10.196;2022-10-31T04:09:39;30.35;;;14.52;;
71665;SDS011;59503;53.486;10.196;2022-10-31T04:12:08;39.28;;;15.65;;
71665;SDS011;59503;53.486;10.196;2022-10-31T04:14:40;36.10;;;16.27;;
71665;SDS011;59503;53.486;10.196;2022-10-31T04:17:09;42.47;;;17.00;;
71665;SDS011;59503;53.486;10.196;2022-10-31T04:19:37;44.55;;;18.15;;
71665;SDS011;59503;53.486;10.196;2022-10-31T04:22:03;42.63;;;17.10;;
71665;SDS011;59503;53.486;10.196;2022-10-31T04:24:28;39.77;;;18.03;;
71665;SDS011;59503;53.486;10.196;2022-10-31T04:26:54;46.20;;;16.87;;
71665;SDS011;59503;53.486;10.196;2022-10-31T04:29:19;38.20;;;16.27;;
71665;SDS011;59503;53.486;10.196;2022-10-31T04:31:44;40.87;;;17.50;;
71665;SDS011;59503;53.486;10.196;2022-10-31T04:34:10;44.83;;;17.05;;
71665;SDS011;59503;53.486;10.196;2022-10-31T04:36:35;41.83;;;16.67;;
71665;SDS011;59503;53.486;10.196;2022-10-31T04:39:01;44.87;;;17.23;;
71665;SDS011;59503;53.486;10.196;2022-10-31T04:41:26;42.87;;;17.30;;
71665;SDS011;59503;53.486;10.196;2022-10-31T04:43:51;44.93;;;16.87;;
71665;SDS011;59503;53.486;10.196;2022-10-31T04:46:17;41.73;;;17.83;;
71665;SDS011;59503;53.486;10.196;2022-10-31T04:48:42;40.53;;;17.47;;
71665;SDS011;59503;53.486;10.196;2022-10-31T04:51:08;43.00;;;17.50;;
71665;SDS011;59503;53.486;10.196;2022-10-31T04:53:33;44.80;;;18.23;;
71665;SDS011;59503;53.486;10.196;2022-10-31T04:55:59;39.10;;;17.50;;
71665;SDS011;59503;53.486;10.196;2022-10-31T04:58:27;43.53;;;17.40;;
71665;SDS011;59503;53.486;10.196;2022-10-31T05:00:53;46.43;;;17.87;;
71665;SDS011;59503;53.486;10.196;2022-10-31T05:03:20;41.28;;;17.10;;
71665;SDS011;59503;53.486;10.196;2022-10-31T05:05:45;36.28;;;16.67;;
71665;SDS011;59503;53.486;10.196;2022-10-31T05:08:11;41.57;;;17.27;;
71665;SDS011;59503;53.486;10.196;2022-10-31T05:10:37;46.95;;;17.38;;
71665;SDS011;59503;53.486;10.196;2022-10-31T05:13:02;35.83;;;16.77;;
71665;SDS011;59503;53.486;10.196;2022-10-31T05:15:29;35.78;;;16.02;;
71665;SDS011;59503;53.486;10.196;2022-10-31T05:17:55;35.10;;;15.40;;
71665;SDS011;59503;53.486;10.196;2022-10-31T05:20:22;41.15;;;16.08;;
71665;SDS011;59503;53.486;10.196;2022-10-31T05:22:50;41.30;;;16.33;;
71665;SDS011;59503;53.486;10.196;2022-10-31T05:25:18;39.67;;;15.57;;
71665;SDS011;59503;53.486;10.196;2022-10-31T05:27:45;39.83;;;16.60;;
71665;SDS011;59503;53.486;10.196;2022-10-31T05:30:13;35.80;;;15.93;;
71665;SDS011;59503;53.486;10.196;2022-10-31T05:32:41;47.55;;;16.63;;
71665;SDS011;59503;53.486;10.196;2022-10-31T05:35:10;35.07;;;14.97;;
71665;SDS011;59503;53.486;10.196;2022-10-31T05:37:37;38.60;;;17.02;;
71665;SDS011;59503;53.486;10.196;2022-10-31T05:40:03;46.83;;;17.77;;
71665;SDS011;59503;53.486;10.196;2022-10-31T05:42:31;40.35;;;16.45;;
71665;SDS011;59503;53.486;10.196;2022-10-31T05:44:56;37.03;;;18.03;;
71665;SDS011;59503;53.486;10.196;2022-10-31T05:47:22;46.77;;;17.43;;
71665;SDS011;59503;53.486;10.196;2022-10-31T05:49:47;46.17;;;18.10;;
71665;SDS011;59503;53.486;10.196;2022-10-31T05:52:13;51.03;;;20.03;;
71665;SDS011;59503;53.486;10.196;2022-10-31T05:54:38;64.43;;;21.77;;
71665;SDS011;59503;53.486;10.196;2022-10-31T05:57:04;52.93;;;19.93;;
71665;SDS011;59503;53.486;10.196;2022-10-31T05:59:29;56.40;;;20.00;;
71665;SDS011;59503;53.486;10.196;2022-10-31T06:01:55;48.17;;;18.88;;
71665;SDS011;59503;53.486;10.196;2022-10-31T06:04:20;53.97;;;17.77;;
71665;SDS011;59503;53.486;10.196;2022-10-31T06:06:46;51.57;;;19.53;;
71665;SDS011;59503;53.486;10.196;2022-10-31T06:09:11;55.83;;;20.07;;
71665;SDS011;59503;53.486;10.196;2022-10-31T06:11:37;54.90;;;20.08;;
71665;SDS011;59503;53.486;10.196;2022-10-31T06:14:02;45.83;;;18.80;;
71665;SDS011;59503;53.486;10.196;2022-10-31T06:16:28;47.17;;;19.40;;
71665;SDS011;59503;53.486;10.196;2022-10-31T06:18:53;69.57;;;22.63;;
71665;SDS011;59503;53.486;10.196;2022-10-31T06:21:19;53.57;;;18.73;;
71665;SDS011;59503;53.486;10.196;2022-10-31T06:23:44;60.73;;;20.70;;
71665;SDS011;59503;53.486;10.196;2022-10-31T06:26:10;55.63;;;19.13;;
71665;SDS011;59503;53.486;10.196;2022-10-31T06:28:35;65.37;;;18.63;;
71665;SDS011;59503;53.486;10.196;2022-10-31T06:31:00;53.70;;;18.23;;
71665;SDS011;59503;53.486;10.196;2022-10-31T06:33:26;54.17;;;18.37;;
71665;SDS011;59503;53.486;10.196;2022-10-31T06:35:51;51.95;;;18.33;;
71665;SDS011;59503;53.486;10.196;2022-10-31T06:38:17;43.97;;;18.00;;
71665;SDS011;59503;53.486;10.196;2022-10-31T06:40:42;45.63;;;18.00;;
71665;SDS011;59503;53.486;10.196;2022-10-31T06:43:08;44.03;;;17.20;;
71665;SDS011;59503;53.486;10.196;2022-10-31T06:45:33;51.95;;;20.17;;
71665;SDS011;59503;53.486;10.196;2022-10-31T06:47:59;50.50;;;18.60;;
71665;SDS011;59503;53.486;10.196;2022-10-31T06:50:25;42.33;;;16.67;;
71665;SDS011;59503;53.486;10.196;2022-10-31T06:52:51;54.83;;;17.47;;
71665;SDS011;59503;53.486;10.196;2022-10-31T06:55:18;69.68;;;22.17;;
71665;SDS011;59503;53.486;10.196;2022-10-31T06:57:52;54.28;;;19.60;;
71665;SDS011;59503;53.486;10.196;2022-10-31T07:00:19;97.82;;;27.35;;
71665;SDS011;59503;53.486;10.196;2022-10-31T07:02:52;85.67;;;22.73;;
71665;SDS011;59503;53.486;10.196;2022-10-31T07:05:20;73.72;;;22.35;;
71665;SDS011;59503;53.486;10.196;2022-10-31T07:07:45;76.30;;;22.70;;
71665;SDS011;59503;53.486;10.196;2022-10-31T07:10:11;82.70;;;23.87;;
71665;SDS011;59503;53.486;10.196;2022-10-31T07:12:36;79.77;;;23.77;;
71665;SDS011;59503;53.486;10.196;2022-10-31T07:15:01;60.53;;;19.10;;
71665;SDS011;59503;53.486;10.196;2022-10-31T07:17:27;84.55;;;22.85;;
71665;SDS011;59503;53.486;10.196;2022-10-31T07:19:52;87.30;;;21.60;;
71665;SDS011;59503;53.486;10.196;2022-10-31T07:22:18;110.40;;;23.73;;
71665;SDS011;59503;53.486;10.196;2022-10-31T07:24:43;86.53;;;21.60;;
71665;SDS011;59503;53.486;10.196;2022-10-31T07:27:09;93.40;;;21.05;;
71665;SDS011;59503;53.486;10.196;2022-10-31T07:29:34;109.77;;;25.27;;
71665;SDS011;59503;53.486;10.196;2022-10-31T07:32:00;124.78;;;27.65;;
71665;SDS011;59503;53.486;10.196;2022-10-31T07:34:26;121.80;;;26.27;;
71665;SDS011;59503;53.486;10.196;2022-10-31T07:36:52;132.35;;;27.55;;
71665;SDS011;59503;53.486;10.196;2022-10-31T07:39:17;102.83;;;25.17;;
71665;SDS011;59503;53.486;10.196;2022-10-31T07:41:43;127.23;;;24.40;;
71665;SDS011;59503;53.486;10.196;2022-10-31T07:44:08;115.10;;;25.37;;
71665;SDS011;59503;53.486;10.196;2022-10-31T07:46:33;116.90;;;26.77;;
71665;SDS011;59503;53.486;10.196;2022-10-31T07:48:59;114.97;;;24.80;;
71665;SDS011;59503;53.486;10.196;2022-10-31T07:51:24;106.73;;;25.70;;
71665;SDS011;59503;53.486;10.196;2022-10-31T07:53:50;105.13;;;23.83;;
71665;SDS011;59503;53.486;10.196;2022-10-31T07:56:15;117.30;;;24.05;;
71665;SDS011;59503;53.486;10.196;2022-10-31T07:58:40;91.57;;;21.63;;
71665;SDS011;59503;53.486;10.196;2022-10-31T08:01:06;91.23;;;21.37;;
71665;SDS011;59503;53.486;10.196;2022-10-31T08:03:31;93.60;;;21.03;;
71665;SDS011;59503;53.486;10.196;2022-10-31T08:05:57;87.20;;;18.95;;
71665;SDS011;59503;53.486;10.196;2022-10-31T08:08:22;90.20;;;20.20;;
71665;SDS011;59503;53.486;10.196;2022-10-31T08:10:49;71.63;;;19.50;;
71665;SDS011;59503;53.486;10.196;2022-10-31T08:13:15;82.03;;;20.63;;
71665;SDS011;59503;53.486;10.196;2022-10-31T08:15:41;69.95;;;19.25;;
71665;SDS011;59503;53.486;10.196;2022-10-31T08:18:11;80.55;;;23.65;;
71665;SDS011;59503;53.486;10.196;2022-10-31T08:20:38;82.23;;;23.13;;
71665;SDS011;59503;53.486;10.196;2022-10-31T08:23:04;85.28;;;23.35;;
71665;SDS011;59503;53.486;10.196;2022-10-31T08:25:30;83.63;;;25.52;;
71665;SDS011;59503;53.486;10.196;2022-10-31T08:27:57;87.60;;;26.55;;
71665;SDS011;59503;53.486;10.196;2022-10-31T08:30:24;90.77;;;26.37;;
71665;SDS011;59503;53.486;10.196;2022-10-31T08:33:10;97.75;;;26.50;;
71665;SDS011;59503;53.486;10.196;2022-10-31T08:35:37;82.03;;;21.90;;
71665;SDS011;59503;53.486;10.196;2022-10-31T08:38:03;95.10;;;24.10;;
71665;SDS011;59503;53.486;10.196;2022-10-31T08:40:29;82.30;;;24.00;;
71665;SDS011;59503;53.486;10.196;2022-10-31T08:43:03;91.57;;;23.60;;
71665;SDS011;59503;53.486;10.196;2022-10-31T08:45:30;81.95;;;21.98;;
71665;SDS011;59503;53.486;10.196;2022-10-31T08:48:01;79.25;;;21.70;;
71665;SDS011;59503;53.486;10.196;2022-10-31T08:50:29;73.75;;;22.08;;
71665;SDS011;59503;53.486;10.196;2022-10-31T08:55:35;81.43;;;20.27;;
71665;SDS011;59503;53.486;10.196;2022-10-31T08:58:03;66.25;;;20.23;;
71665;SDS011;59503;53.486;10.196;2022-10-31T09:00:29;68.47;;;20.38;;
71665;SDS011;59503;53.486;10.196;2022-10-31T09:03:02;63.00;;;17.43;;
71665;SDS011;59503;53.486;10.196;2022-10-31T09:05:36;70.07;;;19.15;;
71665;SDS011;59503;53.486;10.196;2022-10-31T09:08:01;75.90;;;17.90;;
71665;SDS011;59503;53.486;10.196;2022-10-31T09:10:28;73.70;;;18.42;;
71665;SDS011;59503;53.486;10.196;2022-10-31T09:15:35;67.03;;;17.17;;
71665;SDS011;59503;53.486;10.196;2022-10-31T09:18:03;70.23;;;18.77;;
71665;SDS011;59503;53.486;10.196;2022-10-31T09:20:30;68.72;;;17.70;;
71665;SDS011;59503;53.486;10.196;2022-10-31T09:22:57;76.70;;;19.48;;
71665;SDS011;59503;53.486;10.196;2022-10-31T09:25:24;75.00;;;18.75;;
71665;SDS011;59503;53.486;10.196;2022-10-31T09:27:49;71.88;;;19.35;;
71665;SDS011;59503;53.486;10.196;2022-10-31T09:30:15;65.70;;;17.80;;
71665;SDS011;59503;53.486;10.196;2022-10-31T09:32:40;60.50;;;19.10;;
71665;SDS011;59503;53.486;10.196;2022-10-31T09:35:06;65.90;;;19.57;;
71665;SDS011;59503;53.486;10.196;2022-10-31T09:37:31;63.65;;;18.58;;
71665;SDS011;59503;53.486;10.196;2022-10-31T09:39:57;63.83;;;17.90;;
71665;SDS011;59503;53.486;10.196;2022-10-31T09:42:26;55.07;;;17.33;;
71665;SDS011;59503;53.486;10.196;2022-10-31T09:45:06;61.38;;;19.08;;
71665;SDS011;59503;53.486;10.196;2022-10-31T09:50:28;56.95;;;17.02;;
71665;SDS011;59503;53.486;10.196;2022-10-31T09:53:12;57.33;;;16.77;;
71665;SDS011;59503;53.486;10.196;2022-10-31T09:56:00;55.25;;;16.27;;
71665;SDS011;59503;53.486;10.196;2022-10-31T09:58:27;48.47;;;16.95;;
71665;SDS011;59503;53.486;10.196;2022-10-31T10:00:56;52.63;;;15.85;;
71665;SDS011;59503;53.486;10.196;2022-10-31T10:03:35;53.38;;;16.42;;
71665;SDS011;59503;53.486;10.196;2022-10-31T10:06:11;53.60;;;17.30;;
71665;SDS011;59503;53.486;10.196;2022-10-31T10:08:41;52.47;;;16.85;;
71665;SDS011;59503;53.486;10.196;2022-10-31T10:11:44;51.60;;;17.37;;
71665;SDS011;59503;53.486;10.196;2022-10-31T10:14:19;44.87;;;15.50;;
71665;SDS011;59503;53.486;10.196;2022-10-31T10:22:28;45.83;;;15.85;;
71665;SDS011;59503;53.486;10.196;2022-10-31T10:28:04;54.17;;;16.40;;
71665;SDS011;59503;53.486;10.196;2022-10-31T10:30:40;46.60;;;16.52;;
71665;SDS011;59503;53.486;10.196;2022-10-31T10:33:12;44.03;;;16.40;;
71665;SDS011;59503;53.486;10.196;2022-10-31T10:35:57;40.05;;;15.82;;
71665;SDS011;59503;53.486;10.196;2022-10-31T10:38:36;43.47;;;15.57;;
71665;SDS011;59503;53.486;10.196;2022-10-31T10:41:11;40.40;;;14.70;;
71665;SDS011;59503;53.486;10.196;2022-10-31T10:43:39;43.17;;;14.85;;
71665;SDS011;59503;53.486;10.196;2022-10-31T10:46:18;36.37;;;14.77;;
71665;SDS011;59503;53.486;10.196;2022-10-31T10:59:55;34.63;;;14.57;;
71665;SDS011;59503;53.486;10.196;2022-10-31T11:02:23;43.38;;;15.85;;
71665;SDS011;59503;53.486;10.196;2022-10-31T11:05:00;41.08;;;16.05;;
71665;SDS011;59503;53.486;10.196;2022-10-31T11:07:37;41.15;;;16.17;;
71665;SDS011;59503;53.486;10.196;2022-10-31T11:10:11;32.88;;;13.88;;
71665;SDS011;59503;53.486;10.196;2022-10-31T11:12:41;30.00;;;13.57;;
71665;SDS011;59503;53.486;10.196;2022-10-31T11:15:27;30.85;;;14.57;;
71665;SDS011;59503;53.486;10.196;2022-10-31T11:17:56;31.70;;;13.02;;
71665;SDS011;59503;53.486;10.196;2022-10-31T11:23:00;29.13;;;13.48;;
71665;SDS011;59503;53.486;10.196;2022-10-31T11:25:30;30.93;;;12.53;;
71665;SDS011;59503;53.486;10.196;2022-10-31T11:28:03;32.42;;;14.05;;
71665;SDS011;59503;53.486;10.196;2022-10-31T11:30:47;32.05;;;13.40;;
71665;SDS011;59503;53.486;10.196;2022-10-31T11:35:51;31.63;;;14.27;;
71665;SDS011;59503;53.486;10.196;2022-10-31T11:38:19;27.50;;;13.35;;
71665;SDS011;59503;53.486;10.196;2022-10-31T11:40:57;32.38;;;13.40;;
71665;SDS011;59503;53.486;10.196;2022-10-31T11:43:25;37.20;;;14.30;;
71665;SDS011;59503;53.486;10.196;2022-10-31T11:45:52;29.63;;;13.50;;
71665;SDS011;59503;53.486;10.196;2022-10-31T11:48:19;29.13;;;12.63;;
71665;SDS011;59503;53.486;10.196;2022-10-31T11:50:51;30.95;;;14.32;;
71665;SDS011;59503;53.486;10.196;2022-10-31T11:53:29;30.00;;;12.73;;
71665;SDS011;59503;53.486;10.196;2022-10-31T11:56:02;29.50;;;12.80;;
71665;SDS011;59503;53.486;10.196;2022-10-31T11:58:38;26.65;;;12.55;;
71665;SDS011;59503;53.486;10.196;2022-10-31T12:01:08;29.77;;;14.32;;
71665;SDS011;59503;53.486;10.196;2022-10-31T12:03:54;33.47;;;14.68;;
71665;SDS011;59503;53.486;10.196;2022-10-31T12:06:31;36.70;;;14.57;;
71665;SDS011;59503;53.486;10.196;2022-10-31T12:08:59;31.20;;;14.60;;
71665;SDS011;59503;53.486;10.196;2022-10-31T12:22:20;27.45;;;13.02;;
71665;SDS011;59503;53.486;10.196;2022-10-31T12:25:07;30.10;;;12.93;;
71665;SDS011;59503;53.486;10.196;2022-10-31T12:27:49;25.42;;;11.45;;
71665;SDS011;59503;53.486;10.196;2022-10-31T12:30:21;26.67;;;12.50;;
71665;SDS011;59503;53.486;10.196;2022-10-31T12:44:52;25.38;;;11.02;;
71665;SDS011;59503;53.486;10.196;2022-10-31T12:53:04;23.58;;;10.68;;
71665;SDS011;59503;53.486;10.196;2022-10-31T12:58:14;23.33;;;10.60;;
71665;SDS011;59503;53.486;10.196;2022-10-31T13:00:48;27.17;;;11.07;;
71665;SDS011;59503;53.486;10.196;2022-10-31T13:06:02;20.90;;;9.27;;
71665;SDS011;59503;53.486;10.196;2022-10-31T13:08:45;20.88;;;10.00;;
71665;SDS011;59503;53.486;10.196;2022-10-31T13:11:19;22.73;;;8.98;;
71665;SDS011;59503;53.486;10.196;2022-10-31T13:13:57;17.97;;;8.53;;
71665;SDS011;59503;53.486;10.196;2022-10-31T13:16:33;24.23;;;9.23;;
71665;SDS011;59503;53.486;10.196;2022-10-31T13:19:16;21.65;;;9.35;;
71665;SDS011;59503;53.486;10.196;2022-10-31T13:24:23;24.23;;;9.23;;
71665;SDS011;59503;53.486;10.196;2022-10-31T13:27:09;17.37;;;8.60;;
71665;SDS011;59503;53.486;10.196;2022-10-31T13:29:42;19.58;;;8.65;;
71665;SDS011;59503;53.486;10.196;2022-10-31T13:32:15;21.13;;;10.13;;
71665;SDS011;59503;53.486;10.196;2022-10-31T13:34:45;22.27;;;9.20;;
71665;SDS011;59503;53.486;10.196;2022-10-31T13:45:17;20.43;;;8.73;;
71665;SDS011;59503;53.486;10.196;2022-10-31T13:48:01;16.85;;;8.35;;
71665;SDS011;59503;53.486;10.196;2022-10-31T13:50:43;19.40;;;9.90;;
71665;SDS011;59503;53.486;10.196;2022-10-31T13:53:21;25.35;;;10.10;;
71665;SDS011;59503;53.486;10.196;2022-10-31T13:55:49;27.25;;;10.55;;
71665;SDS011;59503;53.486;10.196;2022-10-31T13:58:28;21.93;;;10.73;;
71665;SDS011;59503;53.486;10.196;2022-10-31T14:03:45;21.13;;;9.32;;
71665;SDS011;59503;53.486;10.196;2022-10-31T14:06:12;24.60;;;10.45;;
71665;SDS011;59503;53.486;10.196;2022-10-31T14:08:46;20.33;;;9.63;;
71665;SDS011;59503;53.486;10.196;2022-10-31T14:11:32;29.87;;;12.00;;
71665;SDS011;59503;53.486;10.196;2022-10-31T14:14:01;27.10;;;11.35;;
71665;SDS011;59503;53.486;10.196;2022-10-31T14:16:27;26.42;;;11.25;;
71665;SDS011;59503;53.486;10.196;2022-10-31T14:18:59;27.48;;;11.65;;
71665;SDS011;59503;53.486;10.196;2022-10-31T14:21:30;31.57;;;12.20;;
71665;SDS011;59503;53.486;10.196;2022-10-31T14:24:02;29.27;;;12.20;;
71665;SDS011;59503;53.486;10.196;2022-10-31T14:29:46;33.17;;;12.55;;
71665;SDS011;59503;53.486;10.196;2022-10-31T14:34:40;29.45;;;11.90;;
71665;SDS011;59503;53.486;10.196;2022-10-31T14:45:56;40.20;;;12.93;;
71665;SDS011;59503;53.486;10.196;2022-10-31T14:50:56;32.85;;;12.20;;
71665;SDS011;59503;53.486;10.196;2022-10-31T14:53:27;31.95;;;12.60;;
71665;SDS011;59503;53.486;10.196;2022-10-31T14:55:58;30.77;;;13.48;;
71665;SDS011;59503;53.486;10.196;2022-10-31T15:01:04;28.95;;;12.25;;
71665;SDS011;59503;53.486;10.196;2022-10-31T15:03:33;29.63;;;11.80;;
71665;SDS011;59503;53.486;10.196;2022-10-31T15:06:12;31.97;;;13.30;;
71665;SDS011;59503;53.486;10.196;2022-10-31T15:08:45;29.55;;;12.40;;
71665;SDS011;59503;53.486;10.196;2022-10-31T15:11:14;28.00;;;11.77;;
71665;SDS011;59503;53.486;10.196;2022-10-31T15:13:55;29.02;;;10.90;;
71665;SDS011;59503;53.486;10.196;2022-10-31T15:16:40;34.55;;;11.70;;
71665;SDS011;59503;53.486;10.196;2022-10-31T15:19:10;24.27;;;10.03;;
71665;SDS011;59503;53.486;10.196;2022-10-31T15:21:41;25.90;;;10.25;;
71665;SDS011;59503;53.486;10.196;2022-10-31T15:24:11;28.48;;;10.50;;
71665;SDS011;59503;53.486;10.196;2022-10-31T15:26:43;29.00;;;10.02;;
71665;SDS011;59503;53.486;10.196;2022-10-31T15:29:14;27.17;;;10.10;;
71665;SDS011;59503;53.486;10.196;2022-10-31T15:31:49;32.33;;;11.47;;
71665;SDS011;59503;53.486;10.196;2022-10-31T15:34:20;28.85;;;10.73;;
71665;SDS011;59503;53.486;10.196;2022-10-31T15:36:49;26.83;;;10.60;;
71665;SDS011;59503;53.486;10.196;2022-10-31T15:39:15;29.75;;;11.27;;
71665;SDS011;59503;53.486;10.196;2022-10-31T15:44:15;30.73;;;11.37;;
71665;SDS011;59503;53.486;10.196;2022-10-31T15:46:59;31.63;;;11.55;;
71665;SDS011;59503;53.486;10.196;2022-10-31T15:49:33;34.67;;;11.40;;
71665;SDS011;59503;53.486;10.196;2022-10-31T15:52:25;30.55;;;11.45;;
71665;SDS011;59503;53.486;10.196;2022-10-31T15:54:55;35.88;;;11.25;;
71665;SDS011;59503;53.486;10.196;2022-10-31T15:57:26;37.07;;;11.57;;
71665;SDS011;59503;53.486;10.196;2022-10-31T15:59:51;34.75;;;11.85;;
71665;SDS011;59503;53.486;10.196;2022-10-31T16:02:22;42.75;;;12.45;;
71665;SDS011;59503;53.486;10.196;2022-10-31T16:04:57;42.35;;;12.00;;
71665;SDS011;59503;53.486;10.196;2022-10-31T16:07:25;30.38;;;11.50;;
71665;SDS011;59503;53.486;10.196;2022-10-31T16:12:21;36.33;;;12.93;;
71665;SDS011;59503;53.486;10.196;2022-10-31T16:14:48;38.25;;;12.73;;
71665;SDS011;59503;53.486;10.196;2022-10-31T16:17:16;35.87;;;11.93;;
71665;SDS011;59503;53.486;10.196;2022-10-31T16:20:04;38.88;;;13.45;;
71665;SDS011;59503;53.486;10.196;2022-10-31T16:22:33;39.65;;;12.55;;
71665;SDS011;59503;53.486;10.196;2022-10-31T16:25:11;34.50;;;12.38;;
71665;SDS011;59503;53.486;10.196;2022-10-31T16:27:39;40.78;;;12.45;;
71665;SDS011;59503;53.486;10.196;2022-10-31T16:33:05;36.30;;;12.25;;
71665;SDS011;59503;53.486;10.196;2022-10-31T16:35:48;39.30;;;14.13;;
71665;SDS011;59503;53.486;10.196;2022-10-31T16:38:19;32.80;;;12.88;;
71665;SDS011;59503;53.486;10.196;2022-10-31T16:40:54;36.35;;;12.88;;
71665;SDS011;59503;53.486;10.196;2022-10-31T16:43:20;32.03;;;12.70;;